sensor_id;sensor_type;location;lat;lon;timestamp;pressure;altitude;pressure_sealevel;temperature;humidity
63088;BME280;49173;43.164;27.786;2022-08-06T00:00:53;100144.59;;;24.46;75.17
63088;BME280;49173;43.164;27.786;2022-08-06T00:03:19;100126.78;;;24.42;75.14
63088;BME280;49173;43.164;27.786;2022-08-06T00:05:44;100135.00;;;24.42;75.13
63088;BME280;49173;43.164;27.786;2022-08-06T00:08:10;100130.56;;;24.41;75.42
63088;BME280;49173;43.164;27.786;2022-08-06T00:10:36;100129.72;;;24.40;75.29
63088;BME280;49173;43.164;27.786;2022-08-06T00:13:02;100135.38;;;24.38;75.32
63088;BME280;49173;43.164;27.786;2022-08-06T00:15:28;100133.16;;;24.34;75.51
63088;BME280;49173;43.164;27.786;2022-08-06T00:17:53;100127.81;;;24.32;75.74
63088;BME280;49173;43.164;27.786;2022-08-06T00:20:24;100127.97;;;24.31;75.62
63088;BME280;49173;43.164;27.786;2022-08-06T00:22:50;100135.34;;;24.30;75.78
63088;BME280;49173;43.164;27.786;2022-08-06T00:25:15;100119.94;;;24.29;75.42
63088;BME280;49173;43.164;27.786;2022-08-06T00:27:41;100128.34;;;24.28;75.29
63088;BME280;49173;43.164;27.786;2022-08-06T00:30:07;100121.34;;;24.25;75.04
63088;BME280;49173;43.164;27.786;2022-08-06T00:32:33;100119.13;;;24.21;74.87
63088;BME280;49173;43.164;27.786;2022-08-06T00:34:59;100119.84;;;24.15;74.59
63088;BME280;49173;43.164;27.786;2022-08-06T00:37:24;100119.16;;;24.13;74.64
63088;BME280;49173;43.164;27.786;2022-08-06T00:39:51;100129.63;;;24.09;74.90
63088;BME280;49173;43.164;27.786;2022-08-06T00:42:17;100117.31;;;24.05;74.88
63088;BME280;49173;43.164;27.786;2022-08-06T00:44:42;100127.59;;;24.03;75.24
63088;BME280;49173;43.164;27.786;2022-08-06T00:47:08;100123.31;;;24.00;75.37
63088;BME280;49173;43.164;27.786;2022-08-06T00:49:33;100124.53;;;23.98;75.05
63088;BME280;49173;43.164;27.786;2022-08-06T00:51:59;100124.53;;;23.98;75.36
63088;BME280;49173;43.164;27.786;2022-08-06T00:54:25;100120.25;;;23.95;75.21
63088;BME280;49173;43.164;27.786;2022-08-06T00:56:50;100120.25;;;23.95;75.60
63088;BME280;49173;43.164;27.786;2022-08-06T00:59:16;100117.50;;;23.95;75.63
63088;BME280;49173;43.164;27.786;2022-08-06T01:01:42;100120.09;;;23.89;74.78
63088;BME280;49173;43.164;27.786;2022-08-06T01:04:07;100126.13;;;23.84;73.86
63088;BME280;49173;43.164;27.786;2022-08-06T01:06:33;100119.47;;;23.78;73.78
63088;BME280;49173;43.164;27.786;2022-08-06T01:08:58;100124.41;;;23.75;73.72
63088;BME280;49173;43.164;27.786;2022-08-06T01:11:24;100128.38;;;23.72;73.87
63088;BME280;49173;43.164;27.786;2022-08-06T01:13:50;100124.13;;;23.70;74.43
63088;BME280;49173;43.164;27.786;2022-08-06T01:16:23;100121.56;;;23.68;74.89
63088;BME280;49173;43.164;27.786;2022-08-06T01:24:53;100119.66;;;23.69;75.72
63088;BME280;49173;43.164;27.786;2022-08-06T01:29:39;100107.16;;;23.66;75.57
63088;BME280;49173;43.164;27.786;2022-08-06T01:32:08;100110.75;;;23.67;75.36
63088;BME280;49173;43.164;27.786;2022-08-06T01:34:42;100118.28;;;23.65;75.26
63088;BME280;49173;43.164;27.786;2022-08-06T01:37:29;100114.69;;;23.64;75.28
63088;BME280;49173;43.164;27.786;2022-08-06T01:39:57;100102.22;;;23.62;75.60
63088;BME280;49173;43.164;27.786;2022-08-06T01:42:24;100112.13;;;23.63;75.48
63088;BME280;49173;43.164;27.786;2022-08-06T01:44:50;100105.81;;;23.62;75.19
63088;BME280;49173;43.164;27.786;2022-08-06T01:47:19;100100.63;;;23.59;75.36
63088;BME280;49173;43.164;27.786;2022-08-06T01:49:50;100106.28;;;23.57;75.25
63088;BME280;49173;43.164;27.786;2022-08-06T01:52:16;100105.63;;;23.55;75.06
63088;BME280;49173;43.164;27.786;2022-08-06T01:54:44;100100.47;;;23.52;75.01
63088;BME280;49173;43.164;27.786;2022-08-06T01:57:11;100105.47;;;23.49;75.17
63088;BME280;49173;43.164;27.786;2022-08-06T01:59:40;100108.38;;;23.47;75.24
63088;BME280;49173;43.164;27.786;2022-08-06T02:02:09;100107.34;;;23.48;75.37
63088;BME280;49173;43.164;27.786;2022-08-06T02:04:37;100101.34;;;23.45;75.31
63088;BME280;49173;43.164;27.786;2022-08-06T02:07:03;100107.84;;;23.44;74.80
63088;BME280;49173;43.164;27.786;2022-08-06T02:09:30;100099.81;;;23.42;74.69
63088;BME280;49173;43.164;27.786;2022-08-06T02:12:00;100097.25;;;23.41;75.14
63088;BME280;49173;43.164;27.786;2022-08-06T02:14:27;100100.00;;;23.41;75.06
63088;BME280;49173;43.164;27.786;2022-08-06T02:16:53;100101.19;;;23.38;74.84
63088;BME280;49173;43.164;27.786;2022-08-06T02:19:19;100097.78;;;23.36;74.89
63088;BME280;49173;43.164;27.786;2022-08-06T02:21:47;100097.94;;;23.35;74.56
63088;BME280;49173;43.164;27.786;2022-08-06T02:24:13;100102.41;;;23.36;74.53
63088;BME280;49173;43.164;27.786;2022-08-06T02:26:40;100097.94;;;23.35;74.62
63088;BME280;49173;43.164;27.786;2022-08-06T02:29:07;100101.00;;;23.32;74.60
63088;BME280;49173;43.164;27.786;2022-08-06T02:31:33;100101.38;;;23.28;74.47
63088;BME280;49173;43.164;27.786;2022-08-06T02:33:59;100093.50;;;23.25;74.59
63088;BME280;49173;43.164;27.786;2022-08-06T02:36:44;100105.47;;;23.24;74.30
63088;BME280;49173;43.164;27.786;2022-08-06T02:39:14;100104.13;;;23.20;74.38
63088;BME280;49173;43.164;27.786;2022-08-06T02:44:15;100106.16;;;23.18;74.21
63088;BME280;49173;43.164;27.786;2022-08-06T02:46:45;100103.97;;;23.14;74.29
63088;BME280;49173;43.164;27.786;2022-08-06T02:49:21;100106.69;;;23.14;74.42
63088;BME280;49173;43.164;27.786;2022-08-06T02:51:51;100104.28;;;23.11;74.22
63088;BME280;49173;43.164;27.786;2022-08-06T02:54:23;100110.78;;;23.10;74.52
63088;BME280;49173;43.164;27.786;2022-08-06T02:56:50;100105.66;;;23.07;74.57
63088;BME280;49173;43.164;27.786;2022-08-06T02:59:17;100107.72;;;23.05;74.65
63088;BME280;49173;43.164;27.786;2022-08-06T03:01:48;100115.94;;;23.05;74.44
63088;BME280;49173;43.164;27.786;2022-08-06T03:04:15;100111.47;;;23.03;74.30
63088;BME280;49173;43.164;27.786;2022-08-06T03:06:42;100111.31;;;23.05;74.16
63088;BME280;49173;43.164;27.786;2022-08-06T03:09:10;100117.66;;;23.06;74.35
63088;BME280;49173;43.164;27.786;2022-08-06T03:11:36;100113.22;;;23.05;74.33
63088;BME280;49173;43.164;27.786;2022-08-06T03:14:03;100125.00;;;23.05;74.41
63088;BME280;49173;43.164;27.786;2022-08-06T03:16:30;100125.00;;;23.05;73.92
63088;BME280;49173;43.164;27.786;2022-08-06T03:18:57;100119.69;;;23.03;74.27
63088;BME280;49173;43.164;27.786;2022-08-06T03:21:23;100118.16;;;23.01;74.26
63088;BME280;49173;43.164;27.786;2022-08-06T03:23:50;100125.84;;;22.97;74.43
63088;BME280;49173;43.164;27.786;2022-08-06T03:26:17;100121.38;;;22.96;74.62
63088;BME280;49173;43.164;27.786;2022-08-06T03:28:43;100124.47;;;22.93;74.40
63088;BME280;49173;43.164;27.786;2022-08-06T03:31:09;100125.34;;;22.94;74.16
63088;BME280;49173;43.164;27.786;2022-08-06T03:33:36;100128.56;;;22.97;74.15
63088;BME280;49173;43.164;27.786;2022-08-06T03:36:02;100131.16;;;22.99;73.66
63088;BME280;49173;43.164;27.786;2022-08-06T03:38:31;100123.28;;;23.04;73.68
63088;BME280;49173;43.164;27.786;2022-08-06T03:40:59;100116.78;;;23.05;73.50
63088;BME280;49173;43.164;27.786;2022-08-06T03:43:25;100121.91;;;23.08;73.68
63088;BME280;49173;43.164;27.786;2022-08-06T03:45:52;100117.47;;;23.07;73.61
63088;BME280;49173;43.164;27.786;2022-08-06T03:48:20;100123.63;;;23.09;73.56
63088;BME280;49173;43.164;27.786;2022-08-06T03:50:48;100121.56;;;23.11;73.27
63088;BME280;49173;43.164;27.786;2022-08-06T03:53:20;100119.84;;;23.10;73.64
63088;BME280;49173;43.164;27.786;2022-08-06T03:55:47;100120.03;;;23.09;73.77
63088;BME280;49173;43.164;27.786;2022-08-06T03:58:15;100126.19;;;23.11;73.97
63088;BME280;49173;43.164;27.786;2022-08-06T04:00:46;100125.19;;;23.12;74.02
63088;BME280;49173;43.164;27.786;2022-08-06T04:03:14;100128.59;;;23.14;74.34
63088;BME280;49173;43.164;27.786;2022-08-06T04:05:41;100125.00;;;23.13;73.99
63088;BME280;49173;43.164;27.786;2022-08-06T04:08:07;100130.31;;;23.15;73.98
63088;BME280;49173;43.164;27.786;2022-08-06T04:10:43;100131.69;;;23.19;74.54
63088;BME280;49173;43.164;27.786;2022-08-06T04:13:09;100137.47;;;23.24;74.22
63088;BME280;49173;43.164;27.786;2022-08-06T04:15:35;100135.59;;;23.33;74.29
63088;BME280;49173;43.164;27.786;2022-08-06T04:18:01;100121.91;;;23.41;74.43
63088;BME280;49173;43.164;27.786;2022-08-06T04:20:27;100129.06;;;23.50;73.54
63088;BME280;49173;43.164;27.786;2022-08-06T04:22:54;100128.03;;;23.59;73.32
63088;BME280;49173;43.164;27.786;2022-08-06T04:25:20;100122.22;;;23.70;72.98
63088;BME280;49173;43.164;27.786;2022-08-06T04:27:46;100118.94;;;23.83;72.81
63088;BME280;49173;43.164;27.786;2022-08-06T04:30:13;100125.91;;;23.94;72.63
63088;BME280;49173;43.164;27.786;2022-08-06T04:32:39;100131.88;;;24.05;71.84
63088;BME280;49173;43.164;27.786;2022-08-06T04:35:06;100134.78;;;24.12;71.57
63088;BME280;49173;43.164;27.786;2022-08-06T04:37:51;100133.88;;;24.20;71.94
63088;BME280;49173;43.164;27.786;2022-08-06T04:40:17;100126.28;;;24.30;70.58
63088;BME280;49173;43.164;27.786;2022-08-06T04:42:42;100126.09;;;24.40;69.46
63088;BME280;49173;43.164;27.786;2022-08-06T04:45:08;100129.97;;;24.53;69.21
63088;BME280;49173;43.164;27.786;2022-08-06T04:47:35;100129.94;;;24.61;69.23
63088;BME280;49173;43.164;27.786;2022-08-06T04:50:02;100131.94;;;24.68;69.20
63088;BME280;49173;43.164;27.786;2022-08-06T04:52:28;100133.09;;;24.73;69.17
63088;BME280;49173;43.164;27.786;2022-08-06T04:54:54;100130.97;;;24.83;69.50
63088;BME280;49173;43.164;27.786;2022-08-06T04:57:20;100126.94;;;24.94;69.00
63088;BME280;49173;43.164;27.786;2022-08-06T04:59:45;100129.34;;;24.97;68.00
63088;BME280;49173;43.164;27.786;2022-08-06T05:02:11;100141.81;;;25.08;67.69
63088;BME280;49173;43.164;27.786;2022-08-06T05:04:37;100139.28;;;25.21;67.60
63088;BME280;49173;43.164;27.786;2022-08-06T05:07:12;100140.25;;;25.28;68.05
63088;BME280;49173;43.164;27.786;2022-08-06T05:09:39;100136.88;;;25.41;67.08
63088;BME280;49173;43.164;27.786;2022-08-06T05:12:06;100134.25;;;25.47;66.73
63088;BME280;49173;43.164;27.786;2022-08-06T05:14:58;100146.13;;;25.63;66.75
63088;BME280;49173;43.164;27.786;2022-08-06T05:17:22;100142.47;;;25.85;65.64
63088;BME280;49173;43.164;27.786;2022-08-06T05:19:53;100134.22;;;26.00;65.26
63088;BME280;49173;43.164;27.786;2022-08-06T05:22:21;100140.22;;;26.18;65.30
63088;BME280;49173;43.164;27.786;2022-08-06T05:24:48;100144.66;;;26.34;64.07
63088;BME280;49173;43.164;27.786;2022-08-06T05:27:14;100135.94;;;26.45;63.47
63088;BME280;49173;43.164;27.786;2022-08-06T05:29:40;100135.25;;;26.58;62.99
63088;BME280;49173;43.164;27.786;2022-08-06T05:32:06;100138.09;;;26.65;62.51
63088;BME280;49173;43.164;27.786;2022-08-06T05:34:33;100130.56;;;26.73;61.49
63088;BME280;49173;43.164;27.786;2022-08-06T05:36:59;100131.91;;;26.84;60.77
63088;BME280;49173;43.164;27.786;2022-08-06T05:39:25;100137.28;;;26.92;59.85
63088;BME280;49173;43.164;27.786;2022-08-06T05:41:51;100138.91;;;27.01;58.81
63088;BME280;49173;43.164;27.786;2022-08-06T05:44:17;100131.97;;;27.05;58.82
63088;BME280;49173;43.164;27.786;2022-08-06T05:46:54;100134.13;;;27.10;57.63
63088;BME280;49173;43.164;27.786;2022-08-06T05:49:27;100137.59;;;27.19;57.40
63088;BME280;49173;43.164;27.786;2022-08-06T05:52:38;100139.31;;;27.20;56.39
63088;BME280;49173;43.164;27.786;2022-08-06T05:57:37;100134.91;;;27.25;55.75
63088;BME280;49173;43.164;27.786;2022-08-06T06:00:05;100144.09;;;27.32;55.93
63088;BME280;49173;43.164;27.786;2022-08-06T06:02:35;100139.28;;;27.41;56.34
63088;BME280;49173;43.164;27.786;2022-08-06T06:05:02;100132.78;;;27.49;55.99
63088;BME280;49173;43.164;27.786;2022-08-06T06:07:28;100131.97;;;27.55;55.70
63088;BME280;49173;43.164;27.786;2022-08-06T06:09:55;100126.50;;;27.61;55.84
63088;BME280;49173;43.164;27.786;2022-08-06T06:12:22;100127.91;;;27.72;55.90
63088;BME280;49173;43.164;27.786;2022-08-06T06:14:49;100130.75;;;27.85;56.20
63088;BME280;49173;43.164;27.786;2022-08-06T06:20:07;100126.59;;;28.03;55.18
63088;BME280;49173;43.164;27.786;2022-08-06T06:25:13;100117.59;;;28.22;53.84
63088;BME280;49173;43.164;27.786;2022-08-06T06:27:44;100120.19;;;28.30;52.77
63088;BME280;49173;43.164;27.786;2022-08-06T06:30:16;100119.91;;;28.25;51.27
63088;BME280;49173;43.164;27.786;2022-08-06T06:32:49;100114.63;;;28.24;51.74
63088;BME280;49173;43.164;27.786;2022-08-06T06:35:21;100115.31;;;28.32;53.22
63088;BME280;49173;43.164;27.786;2022-08-06T06:37:51;100112.19;;;28.42;52.43
63088;BME280;49173;43.164;27.786;2022-08-06T06:40:33;100111.78;;;28.52;51.80
63088;BME280;49173;43.164;27.786;2022-08-06T06:43:07;100107.13;;;28.59;51.41
63088;BME280;49173;43.164;27.786;2022-08-06T06:45:46;100106.75;;;28.68;51.00
63088;BME280;49173;43.164;27.786;2022-08-06T06:48:19;100102.72;;;28.78;50.39
63088;BME280;49173;43.164;27.786;2022-08-06T06:50:49;100107.59;;;28.82;50.26
63088;BME280;49173;43.164;27.786;2022-08-06T06:53:17;100110.00;;;28.92;51.59
63088;BME280;49173;43.164;27.786;2022-08-06T06:58:27;100104.72;;;28.97;49.80
63088;BME280;49173;43.164;27.786;2022-08-06T07:00:59;100107.66;;;28.95;49.19
63088;BME280;49173;43.164;27.786;2022-08-06T07:03:27;100102.16;;;28.95;49.13
63088;BME280;49173;43.164;27.786;2022-08-06T07:05:54;100097.06;;;29.06;49.83
63088;BME280;49173;43.164;27.786;2022-08-06T07:08:23;100100.47;;;29.14;49.29
63088;BME280;49173;43.164;27.786;2022-08-06T07:10:52;100096.88;;;29.27;49.47
63088;BME280;49173;43.164;27.786;2022-08-06T07:13:21;100103.03;;;29.36;47.84
63088;BME280;49173;43.164;27.786;2022-08-06T07:15:49;100110.25;;;29.37;48.31
63088;BME280;49173;43.164;27.786;2022-08-06T07:18:15;100104.50;;;29.45;48.68
63088;BME280;49173;43.164;27.786;2022-08-06T07:20:45;100102.41;;;29.60;49.03
63088;BME280;49173;43.164;27.786;2022-08-06T07:23:12;100103.44;;;29.72;48.88
63088;BME280;49173;43.164;27.786;2022-08-06T07:25:41;100103.88;;;29.83;47.71
63088;BME280;49173;43.164;27.786;2022-08-06T07:28:08;100102.56;;;29.92;48.04
63088;BME280;49173;43.164;27.786;2022-08-06T07:30:35;100105.31;;;29.98;47.22
63088;BME280;49173;43.164;27.786;2022-08-06T07:33:02;100103.38;;;30.05;48.02
63088;BME280;49173;43.164;27.786;2022-08-06T07:35:28;100097.22;;;30.10;46.36
63088;BME280;49173;43.164;27.786;2022-08-06T07:38:02;100089.75;;;30.17;46.68
63088;BME280;49173;43.164;27.786;2022-08-06T07:40:31;100105.03;;;30.26;47.11
63088;BME280;49173;43.164;27.786;2022-08-06T07:43:19;100095.84;;;30.32;46.90
63088;BME280;49173;43.164;27.786;2022-08-06T07:45:48;100104.31;;;30.38;46.64
63088;BME280;49173;43.164;27.786;2022-08-06T07:48:14;100098.38;;;30.41;46.18
63088;BME280;49173;43.164;27.786;2022-08-06T07:50:42;100096.66;;;30.46;45.86
63088;BME280;49173;43.164;27.786;2022-08-06T07:53:10;100094.25;;;30.50;45.57
63088;BME280;49173;43.164;27.786;2022-08-06T07:55:37;100092.09;;;30.58;46.29
63088;BME280;49173;43.164;27.786;2022-08-06T07:58:05;100091.22;;;30.58;45.72
63088;BME280;49173;43.164;27.786;2022-08-06T08:00:34;100090.22;;;30.52;44.54
63088;BME280;49173;43.164;27.786;2022-08-06T08:03:00;100106.06;;;30.39;45.00
63088;BME280;49173;43.164;27.786;2022-08-06T08:05:45;100099.00;;;30.36;45.02
63088;BME280;49173;43.164;27.786;2022-08-06T08:08:29;100094.13;;;30.38;45.39
63088;BME280;49173;43.164;27.786;2022-08-06T08:10:56;100090.06;;;30.41;45.49
63088;BME280;49173;43.164;27.786;2022-08-06T08:13:24;100091.94;;;30.47;45.96
63088;BME280;49173;43.164;27.786;2022-08-06T08:15:54;100102.56;;;30.50;45.66
63088;BME280;49173;43.164;27.786;2022-08-06T08:18:27;100093.44;;;30.43;45.14
63088;BME280;49173;43.164;27.786;2022-08-06T08:20:53;100087.88;;;30.49;45.60
63088;BME280;49173;43.164;27.786;2022-08-06T08:23:22;100092.31;;;30.57;46.69
63088;BME280;49173;43.164;27.786;2022-08-06T08:25:57;100090.34;;;30.64;47.41
63088;BME280;49173;43.164;27.786;2022-08-06T08:28:26;100084.41;;;30.67;45.67
63088;BME280;49173;43.164;27.786;2022-08-06T08:30:53;100085.47;;;30.66;46.41
63088;BME280;49173;43.164;27.786;2022-08-06T08:33:19;100095.06;;;30.57;46.45
63088;BME280;49173;43.164;27.786;2022-08-06T08:35:48;100092.97;;;30.59;47.08
63088;BME280;49173;43.164;27.786;2022-08-06T08:38:14;100098.50;;;30.59;48.03
63088;BME280;49173;43.164;27.786;2022-08-06T08:40:40;100097.19;;;30.61;47.77
63088;BME280;49173;43.164;27.786;2022-08-06T08:43:08;100093.97;;;30.71;48.03
63088;BME280;49173;43.164;27.786;2022-08-06T08:45:39;100084.81;;;30.64;47.55
63088;BME280;49173;43.164;27.786;2022-08-06T08:48:10;100093.56;;;30.68;48.06
63088;BME280;49173;43.164;27.786;2022-08-06T08:50:36;100093.34;;;30.69;47.31
63088;BME280;49173;43.164;27.786;2022-08-06T08:53:09;100095.47;;;30.74;47.01
63088;BME280;49173;43.164;27.786;2022-08-06T08:55:35;100094.81;;;30.72;46.45
63088;BME280;49173;43.164;27.786;2022-08-06T08:58:01;100089.91;;;30.74;46.74
63088;BME280;49173;43.164;27.786;2022-08-06T09:00:27;100099.88;;;30.81;46.28
63088;BME280;49173;43.164;27.786;2022-08-06T09:02:53;100098.38;;;30.79;45.18
63088;BME280;49173;43.164;27.786;2022-08-06T09:05:22;100110.84;;;30.56;45.32
63088;BME280;49173;43.164;27.786;2022-08-06T09:07:48;100108.75;;;30.52;45.06
63088;BME280;49173;43.164;27.786;2022-08-06T09:10:14;100106.22;;;30.44;45.22
63088;BME280;49173;43.164;27.786;2022-08-06T09:12:41;100114.53;;;30.44;45.75
63088;BME280;49173;43.164;27.786;2022-08-06T09:15:08;100102.03;;;30.28;45.53
63088;BME280;49173;43.164;27.786;2022-08-06T09:17:36;100108.44;;;30.22;45.81
63088;BME280;49173;43.164;27.786;2022-08-06T09:20:04;100107.41;;;30.16;46.73
63088;BME280;49173;43.164;27.786;2022-08-06T09:22:31;100110.22;;;30.10;46.96
63088;BME280;49173;43.164;27.786;2022-08-06T09:24:57;100106.38;;;30.04;47.04
63088;BME280;49173;43.164;27.786;2022-08-06T09:27:24;100110.63;;;30.00;46.25
63088;BME280;49173;43.164;27.786;2022-08-06T09:29:58;100094.47;;;29.97;47.22
63088;BME280;49173;43.164;27.786;2022-08-06T09:35:25;100101.50;;;29.79;47.73
63088;BME280;49173;43.164;27.786;2022-08-06T09:37:59;100094.72;;;29.75;48.21
63088;BME280;49173;43.164;27.786;2022-08-06T09:40:25;100097.28;;;29.77;48.52
63088;BME280;49173;43.164;27.786;2022-08-06T09:42:52;100094.06;;;29.73;47.91
63088;BME280;49173;43.164;27.786;2022-08-06T09:45:21;100100.88;;;29.77;48.39
63088;BME280;49173;43.164;27.786;2022-08-06T09:47:49;100102.34;;;29.87;47.76
63088;BME280;49173;43.164;27.786;2022-08-06T09:50:15;100091.88;;;29.95;46.73
63088;BME280;49173;43.164;27.786;2022-08-06T09:53:04;100102.50;;;30.18;47.67
63088;BME280;49173;43.164;27.786;2022-08-06T09:55:32;100104.59;;;30.29;46.01
63088;BME280;49173;43.164;27.786;2022-08-06T09:57:58;100112.31;;;30.14;45.52
63088;BME280;49173;43.164;27.786;2022-08-06T10:00:29;100114.66;;;30.17;45.81
63088;BME280;49173;43.164;27.786;2022-08-06T10:02:56;100109.53;;;30.14;45.09
63088;BME280;49173;43.164;27.786;2022-08-06T10:05:23;100109.13;;;30.17;45.42
63088;BME280;49173;43.164;27.786;2022-08-06T10:08:10;100107.41;;;30.16;45.06
63088;BME280;49173;43.164;27.786;2022-08-06T10:10:44;100112.31;;;30.14;45.12
63088;BME280;49173;43.164;27.786;2022-08-06T10:13:20;100113.81;;;30.17;45.34
63088;BME280;49173;43.164;27.786;2022-08-06T10:15:47;100116.97;;;30.20;45.60
63088;BME280;49173;43.164;27.786;2022-08-06T10:21:04;100113.59;;;30.12;45.90
63088;BME280;49173;43.164;27.786;2022-08-06T10:23:32;100112.31;;;30.14;45.88
63088;BME280;49173;43.164;27.786;2022-08-06T10:25:59;100115.69;;;30.16;45.94
63088;BME280;49173;43.164;27.786;2022-08-06T10:28:25;100124.00;;;30.16;45.95
63088;BME280;49173;43.164;27.786;2022-08-06T10:30:54;100116.78;;;30.15;45.93
63088;BME280;49173;43.164;27.786;2022-08-06T10:33:21;100117.19;;;30.25;46.59
63088;BME280;49173;43.164;27.786;2022-08-06T10:35:47;100120.19;;;30.24;46.82
63088;BME280;49173;43.164;27.786;2022-08-06T10:38:14;100115.25;;;30.26;46.01
63088;BME280;49173;43.164;27.786;2022-08-06T10:40:43;100108.88;;;30.25;46.15
63088;BME280;49173;43.164;27.786;2022-08-06T10:43:09;100122.03;;;30.30;45.97
63088;BME280;49173;43.164;27.786;2022-08-06T10:45:36;100112.63;;;30.38;46.02
63088;BME280;49173;43.164;27.786;2022-08-06T10:48:02;100120.69;;;30.52;46.57
63088;BME280;49173;43.164;27.786;2022-08-06T10:50:29;100115.50;;;30.62;45.94
63088;BME280;49173;43.164;27.786;2022-08-06T10:52:56;100114.44;;;30.63;46.17
63088;BME280;49173;43.164;27.786;2022-08-06T10:55:24;100109.28;;;30.80;46.24
63088;BME280;49173;43.164;27.786;2022-08-06T10:57:51;100110.44;;;30.98;46.12
63088;BME280;49173;43.164;27.786;2022-08-06T11:00:18;100111.19;;;31.11;46.43
63088;BME280;49173;43.164;27.786;2022-08-06T11:02:51;100105.41;;;31.13;45.09
63088;BME280;49173;43.164;27.786;2022-08-06T11:05:19;100112.44;;;30.84;45.94
63088;BME280;49173;43.164;27.786;2022-08-06T11:13:04;100106.94;;;30.77;45.68
63088;BME280;49173;43.164;27.786;2022-08-06T11:15:34;100113.91;;;30.86;46.30
63088;BME280;49173;43.164;27.786;2022-08-06T11:18:08;100111.78;;;30.88;46.43
63088;BME280;49173;43.164;27.786;2022-08-06T11:20:35;100109.25;;;30.87;45.74
63088;BME280;49173;43.164;27.786;2022-08-06T11:23:21;100107.94;;;30.89;46.16
63088;BME280;49173;43.164;27.786;2022-08-06T11:25:49;100108.28;;;31.00;46.48
63088;BME280;49173;43.164;27.786;2022-08-06T11:30:57;100102.03;;;31.11;47.06
63088;BME280;49173;43.164;27.786;2022-08-06T11:36:03;100101.50;;;31.21;45.97
63088;BME280;49173;43.164;27.786;2022-08-06T11:43:42;100124.19;;;31.11;45.46
63088;BME280;49173;43.164;27.786;2022-08-06T11:46:23;100111.94;;;30.94;45.96
63088;BME280;49173;43.164;27.786;2022-08-06T11:54:21;100112.75;;;30.69;46.33
63088;BME280;49173;43.164;27.786;2022-08-06T11:57:32;100122.97;;;30.69;46.86
63088;BME280;49173;43.164;27.786;2022-08-06T11:59:35;100109.13;;;30.69;45.69
63088;BME280;49173;43.164;27.786;2022-08-06T12:02:05;100098.66;;;30.71;46.35
63088;BME280;49173;43.164;27.786;2022-08-06T12:15:04;100099.69;;;30.76;43.61
63088;BME280;49173;43.164;27.786;2022-08-06T12:20:39;100083.72;;;30.72;43.53
63088;BME280;49173;43.164;27.786;2022-08-06T12:23:07;100084.16;;;30.75;43.32
63088;BME280;49173;43.164;27.786;2022-08-06T12:25:35;100085.88;;;30.70;43.15
63088;BME280;49173;43.164;27.786;2022-08-06T12:28:10;100083.09;;;30.70;43.58
63088;BME280;49173;43.164;27.786;2022-08-06T12:33:07;100084.19;;;30.69;44.19
63088;BME280;49173;43.164;27.786;2022-08-06T12:35:34;100076.72;;;30.69;44.34
63088;BME280;49173;43.164;27.786;2022-08-06T12:37:59;100079.69;;;30.74;44.53
63088;BME280;49173;43.164;27.786;2022-08-06T12:40:25;100081.34;;;30.82;45.04
63088;BME280;49173;43.164;27.786;2022-08-06T12:45:28;100084.22;;;30.94;45.44
63088;BME280;49173;43.164;27.786;2022-08-06T12:48:00;100072.28;;;30.93;44.98
63088;BME280;49173;43.164;27.786;2022-08-06T12:50:26;100066.09;;;30.98;45.39
63088;BME280;49173;43.164;27.786;2022-08-06T12:53:12;100074.00;;;30.94;44.91
63088;BME280;49173;43.164;27.786;2022-08-06T12:58:11;100078.59;;;30.75;45.94
63088;BME280;49173;43.164;27.786;2022-08-06T13:00:38;100072.84;;;30.77;45.86
63088;BME280;49173;43.164;27.786;2022-08-06T13:03:06;100080.25;;;30.83;45.60
63088;BME280;49173;43.164;27.786;2022-08-06T13:05:35;100080.06;;;30.78;47.23
63088;BME280;49173;43.164;27.786;2022-08-06T13:08:03;100080.31;;;30.76;46.32
63088;BME280;49173;43.164;27.786;2022-08-06T13:10:30;100084.19;;;30.69;48.02
63088;BME280;49173;43.164;27.786;2022-08-06T13:12:58;100074.38;;;30.66;47.66
63088;BME280;49173;43.164;27.786;2022-08-06T13:15:25;100085.06;;;30.56;47.48
63088;BME280;49173;43.164;27.786;2022-08-06T13:18:05;100069.91;;;30.58;48.39
63088;BME280;49173;43.164;27.786;2022-08-06T13:23:07;100053.63;;;30.37;47.97
63088;BME280;49173;43.164;27.786;2022-08-06T13:25:45;100058.31;;;30.36;48.46
63088;BME280;49173;43.164;27.786;2022-08-06T13:28:15;100051.34;;;30.27;47.12
63088;BME280;49173;43.164;27.786;2022-08-06T13:30:41;100049.41;;;30.34;47.09
63088;BME280;49173;43.164;27.786;2022-08-06T13:35:42;100047.88;;;30.45;46.63
63088;BME280;49173;43.164;27.786;2022-08-06T13:38:08;100050.78;;;30.50;46.40
63088;BME280;49173;43.164;27.786;2022-08-06T13:40:39;100040.59;;;30.44;47.16
63088;BME280;49173;43.164;27.786;2022-08-06T13:43:07;100041.38;;;30.58;46.58
63088;BME280;49173;43.164;27.786;2022-08-06T13:45:33;100032.63;;;30.68;46.53
63088;BME280;49173;43.164;27.786;2022-08-06T13:48:06;100039.34;;;30.78;46.34
63088;BME280;49173;43.164;27.786;2022-08-06T13:50:33;100032.03;;;30.90;45.99
63088;BME280;49173;43.164;27.786;2022-08-06T13:52:59;100034.50;;;30.99;45.65
63088;BME280;49173;43.164;27.786;2022-08-06T13:55:25;100036.38;;;31.05;46.07
63088;BME280;49173;43.164;27.786;2022-08-06T13:57:53;100037.84;;;31.07;45.97
63088;BME280;49173;43.164;27.786;2022-08-06T14:00:19;100043.84;;;31.04;44.89
63088;BME280;49173;43.164;27.786;2022-08-06T14:02:48;100038.13;;;30.99;45.06